Argo, Texas
Current Conditions -  °F | °C
As of 8:35 AM on Thursday 29 Jan 2015 (Local Time) from KOSA Reporting Station
Clear Clear  
Wind Chill: 58°   Ceiling: Unl
Heat Index: 58°   Visibility: 10mi
Dew Point: 47°   Wind: 8mph
Humidity: 67%   Direction: 250°WSW
Pressure: 30.19"   Gusts: NA
Location:  33.1839°N, 94.8612°W
Report Text: KOSA 291435Z AUTO 25007KT 10SM CLR 15/08 A3019 RMK AO1 T01450084
Loading
Personal Weather Stations






























Interactive Weather Map New forecast layout! Learn more

10-Day Weather Forecast

Advertisements
Track Severe Weather on mobile